Time;durP1;ratioP1;P1;durP2;ratioP2;P2;SDS_P1;SDS_P2;PMS_P1;PMS_P2;Temp;Humidity;BMP_temperature;BMP_pressure;BME280_temperature;BME280_humidity;BME280_pressure;Samples;Min_cycle;Max_cycle;Signal;HPM_P1;HPM_P2
2024/03/07 00:02:09;;;;;;;0.40;0.40;;;;;;;4.69;100.00;100056.59;5029918;28;20397;-58
2024/03/07 00:04:37;;;;;;;0.40;0.40;;;;;;;4.67;100.00;100059.44;5029914;28;20045;-58
2024/03/07 00:07:05;;;;;;;0.40;0.40;;;;;;;4.44;100.00;100064.84;5028372;28;20132;-58
2024/03/07 00:09:32;;;;;;;0.40;0.40;;;;;;;4.39;100.00;100067.19;5033329;28;20136;-57
2024/03/07 00:12:00;;;;;;;0.45;0.45;;;;;;;4.29;100.00;100066.63;5022440;28;20096;-58
2024/03/07 00:14:27;;;;;;;0.35;0.35;;;;;;;4.25;100.00;100070.69;5029266;28;20052;-58
2024/03/07 00:16:55;;;;;;;0.50;0.50;;;;;;;4.28;100.00;100057.03;5031932;28;20072;-57
2024/03/07 00:19:25;;;;;;;0.47;0.47;;;;;;;4.38;100.00;100068.22;5027762;28;20049;-58
2024/03/07 00:21:54;;;;;;;0.55;0.55;;;;;;;4.31;100.00;100060.13;5025096;28;20602;-58
2024/03/07 00:24:21;;;;;;;0.50;0.50;;;;;;;4.19;100.00;100060.75;5026318;28;20602;-58
2024/03/07 00:26:49;;;;;;;0.30;0.30;;;;;;;3.98;100.00;100059.63;5027040;28;20133;-58
2024/03/07 00:29:18;;;;;;;0.45;0.45;;;;;;;3.93;100.00;100058.53;5030126;28;20058;-58
2024/03/07 00:31:46;;;;;;;0.40;0.40;;;;;;;3.99;100.00;100058.63;5026042;28;20046;-58
2024/03/07 00:34:14;;;;;;;0.40;0.40;;;;;;;3.93;100.00;100055.88;5026173;28;20133;-58
2024/03/07 00:36:41;;;;;;;0.40;0.40;;;;;;;3.87;100.00;100068.84;5027131;28;20139;-58
2024/03/07 00:39:11;;;;;;;0.50;0.50;;;;;;;3.92;100.00;100060.38;5030774;28;20132;-58
2024/03/07 00:41:39;;;;;;;;;;;;;;;4.08;100.00;100067.34;5031422;28;20715;-58
2024/03/07 00:44:06;;;;;;;0.40;0.40;;;;;;;3.80;100.00;100057.31;5023863;28;20295;-58
2024/03/07 00:46:33;;;;;;;0.47;0.47;;;;;;;3.99;100.00;100060.44;5029642;28;20041;-58
2024/03/07 00:49:00;;;;;;;0.47;0.47;;;;;;;3.95;100.00;100059.19;5035521;28;20123;-58
2024/03/07 00:51:28;;;;;;;0.50;0.50;;;;;;;3.78;100.00;100055.84;5025489;28;20153;-57
2024/03/07 00:53:55;;;;;;;0.40;0.40;;;;;;;3.51;100.00;100047.41;5033301;28;20042;-58
2024/03/07 00:56:23;;;;;;;0.50;0.50;;;;;;;3.74;100.00;100046.56;5036469;28;20506;-57
2024/03/07 00:58:51;;;;;;;0.50;0.50;;;;;;;3.59;100.00;100046.50;5029679;28;20225;-58
2024/03/07 01:01:18;;;;;;;0.40;0.40;;;;;;;3.56;100.00;100049.53;5030887;28;20373;-58
2024/03/07 01:03:45;;;;;;;0.30;0.30;;;;;;;3.66;100.00;100048.28;5029198;28;20124;-58
2024/03/07 01:06:12;;;;;;;0.60;0.60;;;;;;;3.79;100.00;100045.03;5033962;28;20176;-58
2024/03/07 01:08:39;;;;;;;0.47;0.47;;;;;;;3.60;100.00;100040.22;5032361;28;20115;-58
2024/03/07 01:11:09;;;;;;;0.40;0.40;;;;;;;3.94;100.00;100041.59;5027425;28;20045;-58
2024/03/07 01:13:38;;;;;;;0.40;0.40;;;;;;;4.13;100.00;100040.28;5032579;28;20045;-58
2024/03/07 01:16:05;;;;;;;0.50;0.50;;;;;;;4.09;100.00;100040.66;5036940;28;20064;-58
2024/03/07 01:18:33;;;;;;;0.40;0.40;;;;;;;4.07;100.00;100041.84;5036580;28;20049;-58
2024/03/07 01:21:00;;;;;;;0.40;0.40;;;;;;;3.91;100.00;100042.78;5038770;28;20045;-57
2024/03/07 01:23:28;;;;;;;0.50;0.50;;;;;;;3.96;100.00;100035.09;5032504;28;20126;-58
2024/03/07 01:25:56;;;;;;;0.50;0.50;;;;;;;3.88;100.00;100043.16;5046304;28;20044;-58
2024/03/07 01:28:24;;;;;;;0.45;0.45;;;;;;;3.89;100.00;100034.19;5028105;28;20041;-57
2024/03/07 01:30:53;;;;;;;0.40;0.40;;;;;;;3.80;100.00;100040.56;5033594;28;20495;-58
2024/03/07 01:33:20;;;;;;;0.40;0.40;;;;;;;3.97;100.00;100031.47;5027701;28;20056;-58
2024/03/07 01:35:47;;;;;;;0.50;0.50;;;;;;;3.69;100.00;100033.84;5035127;28;20037;-59
2024/03/07 01:38:14;;;;;;;0.40;0.40;;;;;;;3.70;100.00;100024.91;5032084;28;20057;-58
2024/03/07 01:40:41;;;;;;;0.50;0.50;;;;;;;3.55;100.00;100032.81;5035198;28;20048;-58
2024/03/07 01:43:09;;;;;;;0.40;0.40;;;;;;;3.75;100.00;100021.72;5028536;28;20122;-58
2024/03/07 01:45:37;;;;;;;0.50;0.50;;;;;;;3.83;100.00;100024.28;5032563;28;20446;-58
2024/03/07 01:48:06;;;;;;;0.40;0.40;;;;;;;3.87;100.00;100030.91;5027810;28;20561;-58
2024/03/07 01:50:33;;;;;;;0.50;0.50;;;;;;;3.44;100.00;100025.25;5035275;28;20055;-57
2024/03/07 01:53:00;;;;;;;0.43;0.43;;;;;;;3.25;100.00;100021.25;5021921;28;20665;-58
2024/03/07 01:55:30;;;;;;;0.50;0.50;;;;;;;3.26;100.00;100022.06;5031084;28;20053;-58
2024/03/07 01:57:57;;;;;;;0.52;0.52;;;;;;;3.08;100.00;100020.53;5033332;28;20073;-58
2024/03/07 02:00:24;;;;;;;0.40;0.40;;;;;;;2.97;100.00;100018.25;5027385;28;20055;-57
2024/03/07 02:02:53;;;;;;;0.50;0.50;;;;;;;3.02;100.00;100022.06;5020389;28;20128;-58
2024/03/07 02:05:21;;;;;;;0.40;0.40;;;;;;;3.12;100.00;100015.69;5032075;28;20542;-58
2024/03/07 02:07:49;;;;;;;0.50;0.50;;;;;;;3.08;100.00;100015.22;5034373;28;20545;-58
2024/03/07 02:10:17;;;;;;;0.50;0.50;;;;;;;2.98;100.00;100022.56;5030103;28;20056;-58
2024/03/07 02:12:44;;;;;;;0.50;0.50;;;;;;;2.93;100.00;100016.97;5030317;28;20046;-57
2024/03/07 02:15:13;;;;;;;0.40;0.40;;;;;;;2.91;100.00;100018.97;5037463;28;20202;-58
2024/03/07 02:17:41;;;;;;;0.47;0.47;;;;;;;2.88;100.00;100011.38;5033488;28;20571;-58
2024/03/07 02:20:10;;;;;;;0.50;0.50;;;;;;;2.95;100.00;100020.28;5025643;28;20140;-58
2024/03/07 02:22:39;;;;;;;0.30;0.30;;;;;;;2.94;100.00;100021.25;5028068;28;20053;-58
2024/03/07 02:25:09;;;;;;;0.50;0.50;;;;;;;2.95;100.00;100018.44;5033035;28;20044;-58
2024/03/07 02:27:36;;;;;;;;;;;;;;;2.91;100.00;100014.47;5032395;28;20049;-58
2024/03/07 02:30:07;;;;;;;0.43;0.43;;;;;;;2.90;100.00;100006.72;5031055;28;19925;-57
2024/03/07 02:32:34;;;;;;;0.47;0.47;;;;;;;3.09;100.00;100002.78;5026876;28;20049;-58
2024/03/07 02:35:03;;;;;;;0.60;0.60;;;;;;;3.09;100.00;100000.16;5033417;28;20055;-58
2024/03/07 02:37:30;;;;;;;0.45;0.45;;;;;;;3.21;100.00;100002.22;5029194;28;20040;-58
2024/03/07 02:39:59;;;;;;;0.50;0.50;;;;;;;3.31;100.00;99998.53;5028859;28;20432;-58
2024/03/07 02:42:26;;;;;;;0.50;0.50;;;;;;;3.34;100.00;99988.38;5026299;28;20141;-58
2024/03/07 02:44:53;;;;;;;0.50;0.50;;;;;;;3.30;100.00;99996.88;5032863;28;20076;-58
2024/03/07 02:47:20;;;;;;;0.50;0.50;;;;;;;3.44;100.00;99990.81;5034906;28;20041;-57
2024/03/07 02:49:47;;;;;;;0.50;0.50;;;;;;;3.51;100.00;99994.38;5028403;28;20060;-58
2024/03/07 02:52:14;;;;;;;0.60;0.60;;;;;;;3.57;100.00;99988.41;5027197;28;20660;-58
2024/03/07 02:54:41;;;;;;;0.50;0.50;;;;;;;3.61;100.00;99994.16;5034275;28;20072;-58
2024/03/07 02:57:11;;;;;;;0.50;0.50;;;;;;;3.56;100.00;99985.91;5032627;28;20095;-58
2024/03/07 02:59:38;;;;;;;0.50;0.50;;;;;;;3.53;100.00;99991.56;5035798;28;20077;-58
2024/03/07 03:02:05;;;;;;;0.50;0.50;;;;;;;3.58;100.00;99990.03;5029603;28;20095;-57
2024/03/07 03:04:32;;;;;;;0.45;0.45;;;;;;;3.58;100.00;99990.03;5027690;28;20049;-58
2024/03/07 03:07:00;;;;;;;0.50;0.50;;;;;;;3.70;100.00;99979.00;5032744;28;20162;-58
2024/03/07 03:09:28;;;;;;;0.50;0.50;;;;;;;3.71;100.00;99980.66;5038499;28;20052;-58
2024/03/07 03:11:55;;;;;;;0.40;0.40;;;;;;;3.57;100.00;99979.59;5040497;28;20049;-58
2024/03/07 03:14:23;;;;;;;0.50;0.50;;;;;;;3.64;100.00;99984.03;5032316;28;20046;-58
2024/03/07 03:16:50;;;;;;;0.47;0.47;;;;;;;3.61;100.00;99979.06;5032635;28;20061;-58
2024/03/07 03:19:17;;;;;;;0.40;0.40;;;;;;;3.58;100.00;99971.47;5027756;28;20178;-58
2024/03/07 03:21:44;;;;;;;0.40;0.40;;;;;;;3.49;100.00;99972.53;5027621;28;20077;-58
2024/03/07 03:24:11;;;;;;;0.40;0.40;;;;;;;3.46;100.00;99967.59;5025290;28;20463;-58
2024/03/07 03:26:40;;;;;;;0.43;0.43;;;;;;;3.44;100.00;99966.94;5039388;28;20163;-58
2024/03/07 03:29:09;;;;;;;0.52;0.52;;;;;;;3.66;100.00;99970.56;5025476;28;20060;-58
2024/03/07 03:31:37;;;;;;;0.55;0.55;;;;;;;3.57;100.00;99964.53;5028830;28;20057;-58
2024/03/07 03:34:04;;;;;;;0.40;0.40;;;;;;;3.55;100.00;99960.41;5025121;28;20116;-58
2024/03/07 03:36:32;;;;;;;0.50;0.50;;;;;;;3.58;100.00;99963.53;5028451;28;20069;-58
2024/03/07 03:38:59;;;;;;;0.40;0.40;;;;;;;3.55;100.00;99968.38;5028051;28;20499;-58
2024/03/07 03:41:26;;;;;;;0.40;0.40;;;;;;;3.57;100.00;99955.75;5038248;28;20049;-58
2024/03/07 03:43:54;;;;;;;0.40;0.40;;;;;;;3.52;100.00;99958.94;5033130;28;20523;-58
2024/03/07 03:46:21;;;;;;;0.50;0.50;;;;;;;3.45;100.00;99958.81;5025307;28;20407;-58
2024/03/07 03:48:50;;;;;;;0.40;0.40;;;;;;;3.43;100.00;99960.00;5026091;28;20149;-58
2024/03/07 03:51:17;;;;;;;0.47;0.47;;;;;;;3.42;100.00;99963.66;5029142;28;20785;-58
2024/03/07 03:53:44;;;;;;;0.50;0.50;;;;;;;3.32;100.00;99963.06;5027950;28;20194;-58
2024/03/07 03:56:13;;;;;;;0.40;0.40;;;;;;;3.28;100.00;99965.25;5027248;28;20045;-58
2024/03/07 03:58:40;;;;;;;0.50;0.50;;;;;;;3.32;100.00;99960.41;5028086;28;20047;-58
2024/03/07 04:01:12;;;;;;;0.50;0.50;;;;;;;3.34;100.00;99963.72;5030157;28;20156;-58
2024/03/07 04:03:40;;;;;;;0.47;0.47;;;;;;;3.35;100.00;99962.72;5033774;28;20750;-58
2024/03/07 04:06:09;;;;;;;0.40;0.40;;;;;;;3.32;100.00;99958.63;5029107;28;20049;-58
2024/03/07 04:08:36;;;;;;;0.40;0.40;;;;;;;3.34;100.00;99959.22;5032414;28;20049;-58
2024/03/07 04:11:04;;;;;;;0.40;0.40;;;;;;;3.34;100.00;99961.06;5031729;28;20069;-58
2024/03/07 04:13:31;;;;;;;0.50;0.50;;;;;;;3.45;100.00;99958.00;5033442;28;20046;-58
2024/03/07 04:15:59;;;;;;;0.38;0.38;;;;;;;3.52;100.00;99953.66;5029325;28;20135;-58
2024/03/07 04:18:26;;;;;;;0.60;0.60;;;;;;;3.54;100.00;99951.63;5029670;28;20118;-58
2024/03/07 04:20:54;;;;;;;0.50;0.50;;;;;;;3.56;100.00;99957.56;5025725;28;20051;-58
2024/03/07 04:23:22;;;;;;;0.50;0.50;;;;;;;3.48;100.00;99957.66;5025943;28;20051;-59
2024/03/07 04:25:50;;;;;;;0.50;0.50;;;;;;;3.29;100.00;99952.81;5029246;28;20056;-58
2024/03/07 04:28:17;;;;;;;0.40;0.40;;;;;;;2.95;100.00;99954.88;5035933;28;20145;-58
2024/03/07 04:30:44;;;;;;;0.40;0.40;;;;;;;2.86;100.00;99950.63;5031822;28;20030;-58
2024/03/07 04:33:11;;;;;;;0.40;0.40;;;;;;;2.87;100.00;99946.16;5035485;28;20069;-58
2024/03/07 04:35:38;;;;;;;0.50;0.50;;;;;;;2.84;100.00;99943.84;5033586;28;20104;-57
2024/03/07 04:38:09;;;;;;;0.50;0.50;;;;;;;2.83;100.00;99948.34;5028810;28;20041;-58
2024/03/07 04:40:38;;;;;;;0.50;0.50;;;;;;;2.95;100.00;99940.81;5034771;28;20734;-57
2024/03/07 04:43:07;;;;;;;0.60;0.60;;;;;;;2.97;100.00;99954.69;5040244;28;20048;-58
2024/03/07 04:45:34;;;;;;;0.60;0.60;;;;;;;2.84;100.00;99949.16;5038440;28;20048;-58
2024/03/07 04:48:01;;;;;;;0.40;0.40;;;;;;;2.77;100.00;99943.72;5034746;28;20546;-58
2024/03/07 04:50:28;;;;;;;0.50;0.50;;;;;;;2.88;100.00;99942.53;5032732;28;20081;-59
2024/03/07 04:52:55;;;;;;;0.50;0.50;;;;;;;2.94;100.00;99949.75;5036621;28;20048;-58
2024/03/07 04:55:24;;;;;;;0.40;0.40;;;;;;;2.79;100.00;99947.84;5046387;28;20082;-58
2024/03/07 04:57:52;;;;;;;0.50;0.50;;;;;;;2.80;100.00;99949.50;5036796;28;20045;-58
2024/03/07 05:00:19;;;;;;;0.60;0.60;;;;;;;2.71;100.00;99952.38;5037615;28;20051;-58
2024/03/07 05:02:48;;;;;;;0.45;0.45;;;;;;;2.63;100.00;99955.88;5032859;28;20045;-58
2024/03/07 05:05:18;;;;;;;0.40;0.40;;;;;;;2.59;100.00;99946.63;5037630;28;20052;-58
2024/03/07 05:07:45;;;;;;;;;;;;;;;2.70;100.00;99948.09;5029608;28;20048;-58
2024/03/07 05:10:12;;;;;;;0.70;0.70;;;;;;;2.93;100.00;99953.41;5028991;28;20343;-58
2024/03/07 05:12:39;;;;;;;0.60;0.60;;;;;;;2.75;100.00;99946.56;5030640;28;20050;-57
2024/03/07 05:15:10;;;;;;;0.50;0.50;;;;;;;2.72;100.00;99952.22;5032964;28;20041;-58
2024/03/07 05:17:38;;;;;;;0.45;0.45;;;;;;;2.76;100.00;99948.19;5032975;28;20045;-58
2024/03/07 05:20:09;;;;;;;0.70;0.70;;;;;;;2.73;100.00;99959.16;5030204;28;20045;-58
2024/03/07 05:22:38;;;;;;;0.60;0.60;;;;;;;2.84;100.00;99959.75;5038180;28;20449;-58
2024/03/07 05:25:06;;;;;;;0.50;0.50;;;;;;;2.80;100.00;99948.69;5031410;28;20562;-58
2024/03/07 05:27:36;;;;;;;0.60;0.60;;;;;;;2.73;100.00;99953.84;5035740;28;20208;-58
2024/03/07 05:30:04;;;;;;;0.55;0.55;;;;;;;2.70;100.00;99948.91;5030230;28;20115;-58
2024/03/07 05:32:34;;;;;;;0.60;0.60;;;;;;;2.67;100.00;99954.56;5036989;28;20052;-59
2024/03/07 05:35:01;;;;;;;0.50;0.50;;;;;;;2.67;100.00;99954.56;5032233;28;20044;-58
2024/03/07 05:37:28;;;;;;;0.60;0.60;;;;;;;2.74;100.00;99952.84;5038781;28;20045;-58
2024/03/07 05:39:55;;;;;;;0.70;0.70;;;;;;;2.65;100.00;99959.19;5030640;28;20065;-59
2024/03/07 05:42:24;;;;;;;0.60;0.60;;;;;;;2.66;100.00;99952.06;5024225;28;20071;-57
2024/03/07 05:44:53;;;;;;;0.50;0.50;;;;;;;2.62;100.00;99964.84;5027407;28;20041;-58
2024/03/07 05:47:21;;;;;;;0.40;0.40;;;;;;;2.61;100.00;99957.06;5030496;28;20045;-58
2024/03/07 05:49:50;;;;;;;0.40;0.40;;;;;;;2.76;100.00;99952.69;5026906;28;20824;-58
2024/03/07 05:52:17;;;;;;;0.60;0.60;;;;;;;2.76;100.00;99955.31;5014606;28;20056;-58
2024/03/07 05:54:45;;;;;;;0.50;0.50;;;;;;;2.86;100.00;99953.28;5030891;28;20511;-58
2024/03/07 05:57:12;;;;;;;0.60;0.60;;;;;;;2.86;100.00;99953.28;5037633;28;20106;-58
2024/03/07 05:59:39;;;;;;;0.50;0.50;;;;;;;2.79;100.00;99955.78;5032144;28;20098;-58
2024/03/07 06:02:06;;;;;;;0.60;0.60;;;;;;;2.77;100.00;99951.66;5037787;28;20041;-58
2024/03/07 06:04:34;;;;;;;0.50;0.50;;;;;;;2.79;100.00;99950.50;5032523;28;20127;-58
2024/03/07 06:07:03;;;;;;;0.50;0.50;;;;;;;2.73;100.00;99960.97;5034855;28;20299;-58
2024/03/07 06:09:30;;;;;;;0.57;0.57;;;;;;;2.71;100.00;99953.19;5038833;28;20043;-58
2024/03/07 06:11:57;;;;;;;0.52;0.52;;;;;;;2.69;100.00;99963.13;5035196;28;20582;-58
2024/03/07 06:14:24;;;;;;;0.50;0.50;;;;;;;2.75;100.00;99956.34;5034414;28;20044;-56
2024/03/07 06:16:51;;;;;;;0.50;0.50;;;;;;;2.87;100.00;99960.25;5025187;28;20135;-58
2024/03/07 06:19:18;;;;;;;0.60;0.60;;;;;;;3.00;100.00;99959.66;5032112;28;20846;-58
2024/03/07 06:21:46;;;;;;;0.50;0.50;;;;;;;3.05;100.00;99959.16;5036316;28;20045;-58
2024/03/07 06:24:15;;;;;;;0.63;0.63;;;;;;;3.13;100.00;99962.53;5034355;28;20137;-58
2024/03/07 06:26:59;;;;;;;0.50;0.50;;;;;;;3.30;100.00;99962.44;5033502;28;20118;-58
2024/03/07 06:29:26;;;;;;;0.60;0.60;;;;;;;3.36;100.00;99956.41;5033509;28;20099;-58
2024/03/07 06:31:54;;;;;;;0.40;0.40;;;;;;;3.41;100.00;99962.81;5033539;28;20045;-58
2024/03/07 06:34:21;;;;;;;0.45;0.45;;;;;;;3.59;100.00;99954.56;5031917;28;20037;-58
2024/03/07 06:36:48;;;;;;;0.68;0.68;;;;;;;3.89;100.00;99965.22;5026621;28;20049;-58
2024/03/07 06:39:16;;;;;;;0.52;0.52;;;;;;;4.50;100.00;99955.25;5034029;28;20164;-59
2024/03/07 06:41:45;;;;;;;0.43;0.43;;;;;;;5.16;100.00;99957.00;5032892;28;20568;-58
2024/03/07 06:44:12;;;;;;;0.73;0.73;;;;;;;5.80;100.00;99961.47;5025112;28;20042;-58
2024/03/07 06:46:39;;;;;;;0.57;0.57;;;;;;;6.37;95.82;99965.75;5035752;28;20063;-59
2024/03/07 06:49:10;;;;;;;0.50;0.50;;;;;;;6.60;91.37;99964.63;5032829;28;20564;-58
2024/03/07 06:51:37;;;;;;;0.47;0.47;;;;;;;6.98;87.00;99962.28;5036317;28;20500;-59
2024/03/07 06:54:05;;;;;;;0.52;0.52;;;;;;;7.46;83.47;99958.69;5033281;28;20132;-59
2024/03/07 06:56:34;;;;;;;0.60;0.60;;;;;;;7.87;81.15;99955.00;5027723;28;20060;-59
2024/03/07 06:59:04;;;;;;;0.50;0.50;;;;;;;7.81;80.45;99956.63;5026429;28;20049;-59
2024/03/07 07:01:31;;;;;;;0.60;0.60;;;;;;;7.89;77.49;99959.09;5034300;28;20127;-59
2024/03/07 07:04:03;;;;;;;0.60;0.60;;;;;;;7.46;81.83;99953.34;5030284;28;20122;-59
2024/03/07 07:06:31;;;;;;;0.47;0.47;;;;;;;7.45;83.24;99952.53;5024639;28;20133;-59
2024/03/07 07:08:58;;;;;;;0.40;0.40;;;;;;;7.59;82.67;99957.88;5029414;28;20048;-59
2024/03/07 07:11:25;;;;;;;0.40;0.40;;;;;;;8.38;79.48;99949.75;5033549;28;20057;-59
2024/03/07 07:13:54;;;;;;;0.32;0.32;;;;;;;8.15;78.47;99952.88;5027935;28;20447;-59
2024/03/07 07:16:21;;;;;;;0.40;0.40;;;;;;;7.97;79.42;99950.88;5029757;28;20518;-59
2024/03/07 07:18:48;;;;;;;0.30;0.30;;;;;;;7.85;79.97;99954.38;5028433;28;20053;-59
2024/03/07 07:21:16;;;;;;;0.40;0.40;;;;;;;7.32;83.70;99953.34;5032936;28;20037;-59
2024/03/07 07:23:43;;;;;;;0.30;0.30;;;;;;;7.09;86.07;99942.25;5026809;28;20052;-59
2024/03/07 07:26:10;;;;;;;0.30;0.30;;;;;;;7.64;80.36;99950.06;5023960;28;20123;-59
2024/03/07 07:28:37;;;;;;;0.20;0.20;;;;;;;7.48;80.08;99943.31;5029040;28;20163;-58
2024/03/07 07:31:06;;;;;;;0.40;0.40;;;;;;;6.40;87.44;99949.38;5032111;28;20052;-59
2024/03/07 07:33:36;;;;;;;0.50;0.50;;;;;;;7.05;85.43;99944.47;5036529;28;20040;-59
2024/03/07 07:36:03;;;;;;;0.32;0.32;;;;;;;6.74;84.27;99949.50;5032509;28;20156;-59
2024/03/07 07:38:31;;;;;;;0.30;0.30;;;;;;;6.44;87.98;99939.13;5031779;28;20068;-58
2024/03/07 07:40:58;;;;;;;0.40;0.40;;;;;;;7.00;87.27;99944.25;5035319;28;20127;-59
2024/03/07 07:43:26;;;;;;;0.40;0.40;;;;;;;7.29;83.03;99936.94;5038749;28;20072;-58
2024/03/07 07:45:53;;;;;;;0.50;0.50;;;;;;;7.67;79.85;99941.66;5031935;28;20705;-58
2024/03/07 07:48:22;;;;;;;0.32;0.32;;;;;;;7.49;79.81;99937.78;5040051;28;20129;-59
2024/03/07 07:50:50;;;;;;;0.40;0.40;;;;;;;7.92;79.02;99942.66;5035321;28;20052;-58
2024/03/07 07:53:17;;;;;;;0.50;0.50;;;;;;;8.12;76.52;99944.50;5038627;28;20420;-59
2024/03/07 07:55:46;;;;;;;0.43;0.43;;;;;;;8.25;75.75;99946.31;5025638;28;20046;-59
2024/03/07 07:58:13;;;;;;;0.30;0.30;;;;;;;8.07;76.62;99936.28;5029674;28;20500;-60
2024/03/07 08:00:42;;;;;;;0.40;0.40;;;;;;;8.30;76.36;99933.13;5032489;28;20049;-57
2024/03/07 08:03:10;;;;;;;0.40;0.40;;;;;;;8.86;73.77;99932.50;5025951;28;20041;-59
2024/03/07 08:05:39;;;;;;;0.47;0.47;;;;;;;9.54;70.94;99937.22;5032599;28;20799;-57
2024/03/07 08:08:07;;;;;;;0.30;0.30;;;;;;;10.09;65.51;99937.31;5021323;28;20324;-58
2024/03/07 08:10:34;;;;;;;0.40;0.40;;;;;;;9.39;67.90;99942.06;5026650;28;20860;-58
2024/03/07 08:13:02;;;;;;;0.40;0.40;;;;;;;9.25;69.69;99942.16;5037844;28;20044;-58
2024/03/07 08:15:30;;;;;;;0.40;0.40;;;;;;;8.75;69.96;99938.53;5033640;28;20743;-58
2024/03/07 08:17:57;;;;;;;0.40;0.40;;;;;;;9.26;68.34;99937.59;5032974;28;20134;-58
2024/03/07 08:20:25;;;;;;;0.30;0.30;;;;;;;9.54;64.29;99939.09;5025614;28;20056;-58
2024/03/07 08:22:55;;;;;;;0.28;0.28;;;;;;;7.92;68.38;99937.31;5038631;28;20107;-58
2024/03/07 08:25:22;;;;;;;0.50;0.50;;;;;;;8.03;68.73;99927.03;5029878;28;20362;-58
2024/03/07 08:27:50;;;;;;;0.40;0.40;;;;;;;8.22;68.91;99947.53;5036207;28;20044;-58
2024/03/07 08:30:17;;;;;;;0.40;0.40;;;;;;;7.71;69.39;99929.53;5034512;28;20041;-58
2024/03/07 08:32:47;;;;;;;0.35;0.35;;;;;;;8.05;68.39;99931.13;5029403;28;20053;-58
2024/03/07 08:35:15;;;;;;;0.35;0.35;;;;;;;7.02;72.79;99941.41;5036537;28;20115;-58
2024/03/07 08:37:45;;;;;;;0.50;0.50;;;;;;;6.43;78.17;99937.50;5038866;28;20045;-58
2024/03/07 08:40:19;;;;;;;0.40;0.40;;;;;;;6.45;78.71;99935.47;5031125;28;20045;-59
2024/03/07 08:42:46;;;;;;;0.40;0.40;;;;;;;6.07;81.61;99930.56;5034889;28;20053;-58
2024/03/07 08:45:17;;;;;;;0.47;0.47;;;;;;;6.02;81.34;99938.31;5035567;28;20088;-60
2024/03/07 08:47:44;;;;;;;0.40;0.40;;;;;;;5.84;80.23;99933.44;5028626;28;20539;-58
2024/03/07 08:50:12;;;;;;;0.40;0.40;;;;;;;5.82;83.47;99936.31;5037493;28;20053;-58
2024/03/07 08:52:40;;;;;;;0.40;0.40;;;;;;;5.62;80.20;99932.69;5029785;28;20076;-56
2024/03/07 08:55:09;;;;;;;0.40;0.40;;;;;;;5.31;82.54;99931.19;5032192;28;20499;-59
2024/03/07 08:57:37;;;;;;;0.40;0.40;;;;;;;5.23;80.71;99936.63;5034349;28;20052;-58
2024/03/07 09:00:08;;;;;;;0.50;0.50;;;;;;;5.14;77.86;99935.97;5034684;28;20434;-58
2024/03/07 09:02:35;;;;;;;0.50;0.50;;;;;;;4.88;77.89;99933.84;5029005;28;20120;-57
2024/03/07 09:05:02;;;;;;;0.55;0.55;;;;;;;5.03;78.93;99933.78;5030076;28;20403;-58
2024/03/07 09:07:29;;;;;;;0.57;0.57;;;;;;;5.33;76.90;99933.66;5024796;28;20052;-57
2024/03/07 09:09:56;;;;;;;0.40;0.40;;;;;;;5.62;71.96;99930.84;5037774;28;20053;-57
2024/03/07 09:12:25;;;;;;;0.50;0.50;;;;;;;6.60;67.85;99932.66;5034098;28;20045;-57
2024/03/07 09:14:53;;;;;;;0.40;0.40;;;;;;;6.17;69.32;99916.91;5034658;28;20072;-58
2024/03/07 09:17:21;;;;;;;0.43;0.43;;;;;;;6.00;72.52;99937.69;5032817;28;20041;-56
2024/03/07 09:19:48;;;;;;;0.55;0.55;;;;;;;6.17;71.64;99920.38;5033571;28;20056;-58
2024/03/07 09:22:15;;;;;;;0.50;0.50;;;;;;;6.48;69.14;99919.09;5036871;28;20057;-58
2024/03/07 09:24:42;;;;;;;0.50;0.50;;;;;;;7.26;66.51;99919.50;5032473;28;20380;-59
2024/03/07 09:27:09;;;;;;;0.40;0.40;;;;;;;7.24;63.95;99926.03;5032143;28;20041;-58
2024/03/07 09:29:36;;;;;;;0.50;0.50;;;;;;;7.57;64.56;99913.56;5036588;28;20119;-59
2024/03/07 09:32:08;;;;;;;0.55;0.55;;;;;;;6.95;63.52;99919.25;5036450;28;20055;-58
2024/03/07 09:34:35;;;;;;;0.50;0.50;;;;;;;7.23;64.50;99911.06;5031775;28;20033;-58
2024/03/07 09:37:03;;;;;;;0.40;0.40;;;;;;;7.00;60.88;99912.28;5030850;28;20037;-59
2024/03/07 09:39:31;;;;;;;0.50;0.50;;;;;;;7.15;61.29;99919.28;5037613;28;20507;-59
2024/03/07 09:41:58;;;;;;;0.50;0.50;;;;;;;7.28;60.16;99913.94;5041015;28;20136;-58
2024/03/07 09:44:25;;;;;;;0.40;0.40;;;;;;;7.09;61.70;99910.25;5036535;28;20053;-59
2024/03/07 09:46:56;;;;;;;0.38;0.38;;;;;;;6.31;62.52;99909.78;5035252;28;20072;-59
2024/03/07 09:49:24;;;;;;;0.40;0.40;;;;;;;6.65;63.47;99907.06;5032214;28;20064;-59
2024/03/07 09:51:54;;;;;;;0.40;0.40;;;;;;;6.72;64.13;99903.63;5030656;28;20052;-59
2024/03/07 09:54:23;;;;;;;0.60;0.60;;;;;;;7.11;64.53;99927.69;5035170;28;20050;-58
2024/03/07 09:56:50;;;;;;;0.40;0.40;;;;;;;6.88;64.19;99911.22;5029219;28;20051;-59
2024/03/07 09:59:18;;;;;;;0.50;0.50;;;;;;;6.43;67.68;99902.88;5029498;28;20045;-58
2024/03/07 10:01:46;;;;;;;0.40;0.40;;;;;;;6.83;66.90;99905.69;5039878;28;20045;-59
2024/03/07 10:04:14;;;;;;;0.38;0.38;;;;;;;6.78;66.54;99902.78;5035786;28;20041;-58
2024/03/07 10:06:43;;;;;;;0.32;0.32;;;;;;;6.63;67.42;99894.97;5038777;28;20053;-58
2024/03/07 10:09:13;;;;;;;0.40;0.40;;;;;;;6.98;64.79;99905.50;5038062;28;20073;-57
2024/03/07 10:11:41;;;;;;;0.30;0.30;;;;;;;6.91;64.86;99900.16;5026662;28;20084;-58
2024/03/07 10:14:08;;;;;;;0.40;0.40;;;;;;;6.83;64.89;99895.03;5039724;28;20036;-59
2024/03/07 10:16:35;;;;;;;0.38;0.38;;;;;;;6.56;65.62;99892.28;5028800;28;20051;-58
2024/03/07 10:19:05;;;;;;;0.50;0.50;;;;;;;6.72;67.24;99891.09;5028948;28;20046;-59
2024/03/07 10:21:32;;;;;;;0.30;0.30;;;;;;;6.03;69.65;99889.38;5036308;28;20049;-58
2024/03/07 10:24:07;;;;;;;0.40;0.40;;;;;;;6.43;66.74;99889.56;5035103;28;20051;-58
2024/03/07 10:26:35;;;;;;;0.50;0.50;;;;;;;7.01;64.72;99876.59;5027870;28;20053;-59
2024/03/07 10:29:02;;;;;;;0.30;0.30;;;;;;;6.58;67.69;99886.75;5032794;28;20041;-59
2024/03/07 10:31:29;;;;;;;0.40;0.40;;;;;;;6.88;66.76;99892.56;5041830;28;20076;-59
2024/03/07 10:34:00;;;;;;;0.43;0.43;;;;;;;6.29;69.20;99888.72;5031957;28;20069;-58
2024/03/07 10:36:28;;;;;;;0.40;0.40;;;;;;;6.16;68.29;99878.81;5031985;28;20558;-58
2024/03/07 10:38:55;;;;;;;0.35;0.35;;;;;;;6.48;68.33;99876.47;5027862;28;20503;-59
2024/03/07 10:41:26;;;;;;;0.40;0.40;;;;;;;6.68;68.41;99877.34;5028896;28;20041;-58
2024/03/07 10:43:54;;;;;;;0.43;0.43;;;;;;;7.08;67.72;99874.75;5040622;28;20052;-58
2024/03/07 10:46:22;;;;;;;0.45;0.45;;;;;;;6.56;67.18;99876.28;5031303;28;20543;-59
2024/03/07 10:48:51;;;;;;;0.40;0.40;;;;;;;6.77;66.96;99872.69;5031471;28;20055;-59
2024/03/07 10:51:25;;;;;;;0.38;0.38;;;;;;;7.22;65.98;99869.44;5031490;28;20059;-59
2024/03/07 10:53:58;;;;;;;0.30;0.30;;;;;;;7.04;66.65;99870.88;5036454;28;20108;-59
2024/03/07 10:56:41;;;;;;;0.40;0.40;;;;;;;6.79;67.75;99867.13;5034798;28;20479;-58
2024/03/07 10:59:11;;;;;;;0.50;0.50;;;;;;;7.01;68.78;99871.25;5027662;28;20235;-59
2024/03/07 11:01:40;;;;;;;0.40;0.40;;;;;;;7.21;66.06;99865.94;5042681;28;20144;-59
2024/03/07 11:04:08;;;;;;;0.40;0.40;;;;;;;7.25;66.87;99861.03;5032804;28;20040;-59
2024/03/07 11:06:36;;;;;;;0.50;0.50;;;;;;;7.26;65.64;99857.34;5037288;28;20039;-58
2024/03/07 11:09:09;;;;;;;0.40;0.40;;;;;;;6.93;66.39;99855.47;5030054;28;20563;-57
2024/03/07 11:11:40;;;;;;;0.40;0.40;;;;;;;6.84;68.18;99854.00;5035470;28;20044;-58
2024/03/07 11:14:10;;;;;;;0.40;0.40;;;;;;;7.11;68.52;99847.72;5038856;28;20049;-58
2024/03/07 11:16:38;;;;;;;0.50;0.50;;;;;;;7.92;64.20;99843.91;5037688;28;20132;-58
2024/03/07 11:19:26;;;;;;;0.40;0.40;;;;;;;7.60;65.05;99842.13;5032757;28;20139;-58
2024/03/07 11:21:55;;;;;;;0.40;0.40;;;;;;;6.67;69.34;99848.28;5040501;28;20041;-58
2024/03/07 11:24:28;;;;;;;0.40;0.40;;;;;;;7.74;65.90;99831.22;5037670;28;20439;-59
2024/03/07 11:26:57;;;;;;;0.30;0.30;;;;;;;8.18;63.47;99832.31;5036095;28;20045;-57
2024/03/07 11:29:52;;;;;;;0.30;0.30;;;;;;;7.60;64.83;99831.47;5039903;28;20640;-58
2024/03/07 11:32:20;;;;;;;0.40;0.40;;;;;;;7.65;64.99;99824.47;5038008;28;20606;-58
2024/03/07 11:34:48;;;;;;;0.40;0.40;;;;;;;7.91;66.08;99823.59;5035218;28;20071;-58
2024/03/07 11:37:22;;;;;;;0.30;0.30;;;;;;;7.83;66.50;99821.13;5037535;28;20053;-58
2024/03/07 11:39:51;;;;;;;0.40;0.40;;;;;;;7.35;66.95;99824.94;5027969;28;20068;-58
2024/03/07 11:42:25;;;;;;;0.40;0.40;;;;;;;7.32;67.49;99816.53;5028153;28;20124;-59